Time;durP1;ratioP1;P1;durP2;ratioP2;P2;SDS_P1;SDS_P2;PMS_P1;PMS_P2;Temp;Humidity;BMP_temperature;BMP_pressure;BME280_temperature;BME280_humidity;BME280_pressure;Samples;Min_cycle;Max_cycle;Signal;HPM_P1;HPM_P2
2021/09/17 00:01:11;;;;;;;3.70;3.40;;;22.80;37.50;;;;;;4973402;28;20183;-55
2021/09/17 00:03:37;;;;;;;3.53;3.33;;;22.80;37.50;;;;;;4973372;28;20182;-55
2021/09/17 00:06:02;;;;;;;3.70;3.43;;;22.80;37.40;;;;;;4973495;28;20207;-55
2021/09/17 00:08:28;;;;;;;3.57;3.30;;;22.80;37.50;;;;;;4973134;28;20195;-54
2021/09/17 00:10:54;;;;;;;3.13;2.83;;;22.80;37.60;;;;;;4973330;28;20320;-57
2021/09/17 00:13:19;;;;;;;5.03;3.67;;;22.80;37.60;;;;;;4973350;28;20665;-54
2021/09/17 00:15:45;;;;;;;3.73;3.40;;;22.80;37.60;;;;;;4973245;28;20175;-54
2021/09/17 00:18:10;;;;;;;3.73;3.53;;;22.80;37.60;;;;;;4972953;28;20194;-57
2021/09/17 00:20:36;;;;;;;3.70;3.50;;;22.80;37.60;;;;;;4973134;28;20656;-53
2021/09/17 00:23:02;;;;;;;3.77;3.47;;;22.80;37.60;;;;;;4973244;28;20179;-55
2021/09/17 00:25:27;;;;;;;3.47;3.27;;;22.80;37.70;;;;;;4973110;28;20246;-55
2021/09/17 00:27:53;;;;;;;3.27;3.07;;;22.80;37.60;;;;;;4972975;28;20201;-56
2021/09/17 00:30:19;;;;;;;3.27;3.07;;;22.70;37.50;;;;;;4973112;28;20175;-56
2021/09/17 00:32:45;;;;;;;3.70;3.50;;;22.80;37.60;;;;;;4973241;28;20182;-53
2021/09/17 00:35:12;;;;;;;3.13;2.90;;;22.80;37.70;;;;;;4973242;28;20860;-57
2021/09/17 00:37:37;;;;;;;3.57;3.37;;;22.80;37.60;;;;;;4972853;28;20444;-52
2021/09/17 00:40:03;;;;;;;2.90;2.70;;;22.70;37.60;;;;;;4973134;28;20509;-58
2021/09/17 00:42:29;;;;;;;3.80;3.57;;;22.70;37.60;;;;;;4973093;28;20261;-53
2021/09/17 00:44:54;;;;;;;3.20;3.00;;;22.70;37.50;;;;;;4975260;28;20422;-58
2021/09/17 00:47:20;;;;;;;3.20;3.00;;;22.70;37.70;;;;;;4976625;28;20253;-54
2021/09/17 00:49:46;;;;;;;2.30;2.20;;;22.70;37.60;;;;;;4976880;28;20175;-57
2021/09/17 00:52:11;;;;;;;3.30;3.10;;;22.70;37.70;;;;;;4976921;28;20178;-57
2021/09/17 00:54:37;;;;;;;3.70;3.40;;;22.70;37.70;;;;;;4976852;28;20406;-53
2021/09/17 00:57:03;;;;;;;3.23;3.03;;;22.70;37.80;;;;;;4976738;28;20179;-57
2021/09/17 00:59:29;;;;;;;3.30;3.10;;;22.70;37.80;;;;;;4976765;28;20175;-57
2021/09/17 01:01:55;;;;;;;3.27;3.07;;;22.70;37.80;;;;;;4976692;28;20421;-57
2021/09/17 01:04:22;;;;;;;3.03;2.83;;;22.70;38.40;;;;;;4976593;28;20179;-57
2021/09/17 01:06:47;;;;;;;3.67;3.47;;;22.70;38.40;;;;;;4976532;28;20203;-57
2021/09/17 01:09:13;;;;;;;3.87;3.67;;;22.70;37.70;;;;;;4976761;28;20445;-55
2021/09/17 01:11:39;;;;;;;3.77;3.47;;;22.70;37.70;;;;;;4976462;28;20170;-55
2021/09/17 01:14:05;;;;;;;3.80;3.50;;;22.70;37.80;;;;;;4976445;28;20257;-54
2021/09/17 01:16:31;;;;;;;3.03;2.83;;;22.70;37.70;;;;;;4976250;28;20198;-54
2021/09/17 01:18:56;;;;;;;3.00;2.90;;;22.70;37.80;;;;;;4976260;28;20987;-56
2021/09/17 01:21:23;;;;;;;3.17;2.97;;;22.70;37.90;;;;;;4976184;28;20661;-57
2021/09/17 01:23:49;;;;;;;3.13;2.93;;;22.70;37.80;;;;;;4976333;28;20182;-56
2021/09/17 01:26:15;;;;;;;3.47;3.17;;;22.70;37.90;;;;;;4976207;28;20838;-56
2021/09/17 01:28:41;;;;;;;3.33;3.13;;;22.70;37.90;;;;;;4975762;28;20445;-57
2021/09/17 01:31:07;;;;;;;3.67;3.47;;;22.70;38.00;;;;;;4976004;28;20409;-57
2021/09/17 01:33:33;;;;;;;3.40;3.10;;;22.70;37.90;;;;;;4976213;28;20414;-57
2021/09/17 01:36:10;;;;;;;3.07;2.87;;;22.70;37.90;;;;;;4976054;28;20206;-57
2021/09/17 01:38:38;;;;;;;3.83;3.40;;;22.70;37.80;;;;;;4975902;28;20191;-55
2021/09/17 01:41:04;;;;;;;3.57;3.37;;;22.70;37.90;;;;;;4975930;28;20996;-55
2021/09/17 01:43:29;;;;;;;3.50;3.30;;;22.70;37.90;;;;;;4975899;28;20514;-53
2021/09/17 01:45:57;;;;;;;4.17;3.00;;;22.70;37.90;;;;;;4975796;28;20213;-54
2021/09/17 01:48:28;;;;;;;3.07;2.87;;;22.70;37.90;;;;;;4975525;28;20202;-57
2021/09/17 01:50:54;;;;;;;3.10;2.93;;;22.70;37.80;;;;;;4975826;28;20410;-55
2021/09/17 01:53:20;;;;;;;3.30;3.10;;;22.70;38.00;;;;;;4975787;28;20402;-56
2021/09/17 01:55:45;;;;;;;3.30;3.00;;;22.60;37.80;;;;;;4975631;28;20178;-56
2021/09/17 01:58:11;;;;;;;3.27;3.07;;;22.70;37.90;;;;;;4975287;28;20289;-55
2021/09/17 02:00:36;;;;;;;3.67;3.47;;;22.70;37.90;;;;;;4975580;28;20221;-56
2021/09/17 02:03:02;;;;;;;3.17;2.97;;;22.70;38.00;;;;;;4975649;28;20209;-57
2021/09/17 02:05:28;;;;;;;4.30;4.00;;;22.70;38.00;;;;;;4975385;28;20206;-54
2021/09/17 02:07:54;;;;;;;3.00;2.90;;;22.70;38.10;;;;;;4975412;28;20221;-52
2021/09/17 02:10:19;;;;;;;3.13;2.93;;;22.60;38.00;;;;;;4975375;28;20406;-56
2021/09/17 02:12:45;;;;;;;3.07;2.87;;;22.70;38.10;;;;;;4975371;28;20171;-57
2021/09/17 02:15:11;;;;;;;3.40;3.20;;;22.60;38.00;;;;;;4975301;28;20545;-55
2021/09/17 02:17:37;;;;;;;3.47;3.17;;;22.60;38.00;;;;;;4975129;28;20457;-54
2021/09/17 02:20:06;;;;;;;3.20;3.00;;;22.60;38.10;;;;;;4975210;28;20497;-55
2021/09/17 02:22:33;;;;;;;3.40;3.20;;;22.60;38.00;;;;;;4975192;28;20211;-56
2021/09/17 02:25:00;;;;;;;2.90;2.80;;;22.60;38.00;;;;;;4975267;28;20414;-57
2021/09/17 02:27:25;;;;;;;3.47;3.27;;;22.60;38.10;;;;;;4974707;28;20520;-54
2021/09/17 02:29:51;;;;;;;3.90;3.60;;;22.60;38.00;;;;;;4990133;28;20414;-57
2021/09/17 02:32:17;;;;;;;3.13;2.93;;;22.70;38.10;;;;;;4975012;28;20657;-56
2021/09/17 02:34:42;;;;;;;3.33;3.13;;;22.60;38.00;;;;;;4975179;28;20205;-56
2021/09/17 02:37:08;;;;;;;3.63;3.43;;;22.60;38.00;;;;;;4974623;28;20190;-56
2021/09/17 02:39:34;;;;;;;3.80;3.10;;;22.60;38.00;;;;;;4975064;28;20538;-58
2021/09/17 02:41:59;;;;;;;3.60;3.30;;;22.60;38.00;;;;;;4974805;28;20661;-58
2021/09/17 02:44:25;;;;;;;3.33;3.03;;;22.60;38.00;;;;;;4974860;28;20406;-57
2021/09/17 02:46:51;;;;;;;4.23;3.93;;;22.60;38.00;;;;;;4974469;28;20210;-57
2021/09/17 02:49:16;;;;;;;3.77;3.47;;;22.60;38.10;;;;;;4974727;28;20203;-58
2021/09/17 02:51:42;;;;;;;3.50;3.30;;;22.60;38.10;;;;;;4974666;28;20255;-58
2021/09/17 02:54:07;;;;;;;3.50;3.30;;;22.60;38.10;;;;;;4975083;28;20226;-55
2021/09/17 02:56:33;;;;;;;3.50;3.30;;;22.60;38.00;;;;;;4974420;28;20179;-56
2021/09/17 02:58:58;;;;;;;4.30;4.00;;;22.60;38.00;;;;;;4974386;28;20202;-55
2021/09/17 03:01:24;;;;;;;3.77;3.57;;;22.60;38.10;;;;;;4974463;28;20174;-56
2021/09/17 03:03:49;;;;;;;3.23;3.03;;;22.60;38.00;;;;;;4974573;28;20302;-57
2021/09/17 03:06:15;;;;;;;3.30;3.10;;;22.60;38.10;;;;;;4974064;28;20202;-55
2021/09/17 03:08:40;;;;;;;3.40;3.17;;;22.60;38.10;;;;;;4973843;28;20195;-55
2021/09/17 03:11:06;;;;;;;3.60;3.40;;;22.60;38.10;;;;;;4974163;28;20179;-53
2021/09/17 03:13:32;;;;;;;3.60;3.40;;;22.60;38.10;;;;;;4974382;28;20183;-56
2021/09/17 03:15:57;;;;;;;3.73;3.53;;;22.60;38.10;;;;;;4974209;28;20592;-53
2021/09/17 03:18:23;;;;;;;4.00;3.77;;;22.60;38.10;;;;;;4974154;28;20206;-56
2021/09/17 03:20:50;;;;;;;3.40;3.10;;;22.60;38.00;;;;;;4974129;28;20218;-56
2021/09/17 03:23:17;;;;;;;3.90;3.70;;;22.60;38.10;;;;;;4974074;28;20182;-56
2021/09/17 03:25:43;;;;;;;4.07;3.80;;;22.60;38.10;;;;;;4973989;28;20519;-56
2021/09/17 03:28:09;;;;;;;3.70;3.50;;;22.60;38.10;;;;;;4973711;28;20461;-57
2021/09/17 03:30:34;;;;;;;4.10;3.80;;;22.60;38.10;;;;;;4974096;28;20179;-56
2021/09/17 03:33:00;;;;;;;3.97;3.67;;;22.60;38.20;;;;;;4973681;28;20704;-53
2021/09/17 03:35:25;;;;;;;3.30;3.10;;;22.60;38.20;;;;;;4972750;28;20526;-57
2021/09/17 03:37:51;;;;;;;3.97;3.67;;;22.60;38.10;;;;;;4973501;28;20206;-56
2021/09/17 03:40:17;;;;;;;3.60;3.40;;;22.60;38.10;;;;;;4973686;28;20225;-54
2021/09/17 03:42:43;;;;;;;4.10;3.80;;;22.60;38.10;;;;;;4973756;28;20420;-57
2021/09/17 03:45:09;;;;;;;4.23;4.03;;;22.60;38.20;;;;;;4973591;28;20410;-57
2021/09/17 03:47:35;;;;;;;3.77;3.53;;;22.60;38.20;;;;;;4973454;28;20213;-56
2021/09/17 03:50:00;;;;;;;3.83;3.63;;;22.60;38.30;;;;;;4973749;28;20414;-57
2021/09/17 03:52:26;;;;;;;4.10;3.80;;;22.60;38.40;;;;;;4973556;28;20668;-54
2021/09/17 03:54:51;;;;;;;3.97;3.77;;;22.60;38.50;;;;;;4973389;28;20175;-56
2021/09/17 03:57:17;;;;;;;4.10;3.80;;;22.60;38.60;;;;;;4973160;28;20170;-52
2021/09/17 03:59:43;;;;;;;4.53;4.23;;;22.60;38.70;;;;;;4973576;28;20175;-56
2021/09/17 04:02:08;;;;;;;4.50;4.20;;;22.60;38.60;;;;;;4973504;28;20186;-55
2021/09/17 04:04:34;;;;;;;4.10;3.80;;;22.60;38.30;;;;;;4973391;28;20646;-57
2021/09/17 04:06:59;;;;;;;4.23;4.00;;;22.60;38.30;;;;;;4973047;28;20214;-55
2021/09/17 04:09:25;;;;;;;4.70;4.40;;;22.50;38.20;;;;;;4973264;28;20210;-56
2021/09/17 04:11:51;;;;;;;4.20;3.90;;;22.60;38.30;;;;;;4973306;28;20182;-54
2021/09/17 04:14:16;;;;;;;4.27;4.07;;;22.50;38.30;;;;;;4973320;28;20257;-56
2021/09/17 04:16:42;;;;;;;3.73;3.53;;;22.60;38.40;;;;;;4973072;28;20691;-59
2021/09/17 04:19:08;;;;;;;4.13;3.83;;;22.50;38.20;;;;;;4970833;28;20199;-60
2021/09/17 04:21:33;;;;;;;3.77;3.47;;;22.60;38.20;;;;;;4968219;28;20199;-59
2021/09/17 04:23:59;;;;;;;3.80;3.60;;;22.60;38.20;;;;;;4972943;28;20266;-59
2021/09/17 04:26:25;;;;;;;4.03;3.83;;;22.50;38.20;;;;;;4964296;28;20677;-64
2021/09/17 04:28:51;;;;;;;4.20;4.00;;;22.60;38.20;;;;;;4952984;29;20196;-64
2021/09/17 04:31:17;;;;;;;3.80;3.60;;;22.60;38.20;;;;;;4953901;29;20461;-58
2021/09/17 04:33:42;;;;;;;3.80;3.60;;;22.60;38.20;;;;;;4953549;29;20415;-65
2021/09/17 04:36:08;;;;;;;4.33;4.03;;;22.60;38.20;;;;;;4953429;28;20242;-66
2021/09/17 04:38:33;;;;;;;4.33;4.03;;;22.60;38.20;;;;;;4967711;28;20229;-63
2021/09/17 04:40:59;;;;;;;4.20;3.80;;;22.60;38.20;;;;;;4973020;28;20206;-59
2021/09/17 04:43:27;;;;;;;3.77;3.47;;;22.60;38.20;;;;;;4972701;28;20206;-60
2021/09/17 04:45:52;;;;;;;4.23;3.80;;;22.60;38.10;;;;;;4987586;28;20202;-61
2021/09/17 04:48:18;;;;;;;3.60;3.40;;;22.60;38.10;;;;;;4972544;28;20492;-60
2021/09/17 04:50:45;;;;;;;4.50;4.20;;;22.60;38.20;;;;;;4972409;28;20171;-61
2021/09/17 04:53:11;;;;;;;3.57;3.37;;;22.60;38.20;;;;;;4972753;28;20210;-60
2021/09/17 04:55:37;;;;;;;3.97;3.67;;;22.60;38.20;;;;;;4972830;28;20414;-60
2021/09/17 04:58:07;;;;;;;4.00;3.70;;;22.60;38.10;;;;;;4972382;28;20597;-60
2021/09/17 05:00:35;;;;;;;3.73;3.50;;;22.60;38.10;;;;;;4972665;28;20413;-60
2021/09/17 05:03:00;;;;;;;4.67;4.23;;;22.60;38.10;;;;;;4972868;28;20418;-59
2021/09/17 05:05:26;;;;;;;3.63;3.43;;;22.60;38.20;;;;;;4972284;28;20421;-62
2021/09/17 05:07:52;;;;;;;3.67;3.47;;;22.60;38.10;;;;;;4972321;28;20199;-62
2021/09/17 05:10:18;;;;;;;4.00;3.70;;;22.60;38.10;;;;;;4972729;28;20178;-60
2021/09/17 05:12:43;;;;;;;4.40;4.10;;;22.60;38.00;;;;;;4972252;28;20501;-61
2021/09/17 05:15:10;;;;;;;5.03;4.63;;;22.60;38.00;;;;;;4972772;28;20175;-61
2021/09/17 05:17:35;;;;;;;4.67;4.37;;;22.60;37.90;;;;;;4972430;28;20615;-60
2021/09/17 05:20:01;;;;;;;5.00;4.70;;;22.60;37.90;;;;;;4972571;28;20449;-60
2021/09/17 05:22:27;;;;;;;4.90;4.50;;;22.60;37.90;;;;;;4972485;28;20241;-61
2021/09/17 05:24:53;;;;;;;6.53;4.77;;;22.60;37.80;;;;;;4972689;28;20198;-60
2021/09/17 05:27:19;;;;;;;6.20;4.40;;;22.60;37.70;;;;;;4972335;28;20202;-61
2021/09/17 05:29:44;;;;;;;4.67;4.27;;;22.60;37.60;;;;;;4972926;28;20421;-60
2021/09/17 05:32:10;;;;;;;5.27;4.40;;;22.60;37.60;;;;;;4976097;28;20410;-60
2021/09/17 05:34:36;;;;;;;5.53;4.33;;;22.60;37.70;;;;;;4975886;28;20179;-60
2021/09/17 05:37:02;;;;;;;4.20;3.90;;;22.60;37.70;;;;;;4975525;28;20187;-61
2021/09/17 05:39:27;;;;;;;4.23;3.93;;;22.60;37.60;;;;;;4975891;28;20443;-61
2021/09/17 05:41:53;;;;;;;4.73;4.03;;;22.60;37.70;;;;;;4975985;28;20406;-60
2021/09/17 05:44:18;;;;;;;5.23;4.87;;;22.60;37.70;;;;;;4975755;28;20177;-60
2021/09/17 05:46:45;;;;;;;4.60;4.20;;;22.60;37.70;;;;;;4975496;28;20284;-61
2021/09/17 05:49:10;;;;;;;4.53;4.13;;;22.60;37.60;;;;;;4975595;28;20194;-61
2021/09/17 05:51:36;;;;;;;5.70;4.70;;;22.50;37.60;;;;;;4975643;28;20425;-59
2021/09/17 05:54:01;;;;;;;6.40;5.70;;;22.60;37.80;;;;;;4975508;28;20533;-60
2021/09/17 05:56:27;;;;;;;5.97;5.37;;;22.50;37.70;;;;;;4975708;28;20178;-62
2021/09/17 05:58:52;;;;;;;6.37;5.67;;;22.50;37.60;;;;;;4975293;28;20603;-62
2021/09/17 06:01:18;;;;;;;5.57;4.90;;;22.50;37.60;;;;;;4975548;28;20249;-59
2021/09/17 06:03:44;;;;;;;5.00;4.47;;;22.50;37.70;;;;;;4975441;28;20680;-61
2021/09/17 06:06:09;;;;;;;6.00;4.83;;;22.50;37.50;;;;;;4975193;28;20257;-61
2021/09/17 06:08:35;;;;;;;8.70;5.50;;;22.50;37.40;;;;;;4974347;28;20198;-61
2021/09/17 06:11:01;;;;;;;9.53;5.20;;;22.50;37.30;;;;;;4974581;28;20565;-61
2021/09/17 06:13:26;;;;;;;5.00;4.43;;;22.50;37.10;;;;;;4974988;28;20202;-61
2021/09/17 06:15:52;;;;;;;5.93;4.90;;;22.50;37.00;;;;;;4975313;28;20217;-61
2021/09/17 06:18:19;;;;;;;5.63;4.83;;;22.50;36.90;;;;;;4974767;28;20214;-63
2021/09/17 06:20:45;;;;;;;7.13;4.20;;;22.50;36.80;;;;;;4974843;28;20202;-60
2021/09/17 06:23:11;;;;;;;5.33;4.23;;;22.50;36.80;;;;;;4975203;28;20425;-58
2021/09/17 06:25:37;;;;;;;4.40;4.10;;;22.50;36.80;;;;;;4974948;28;20478;-59
2021/09/17 06:28:04;;;;;;;4.30;4.00;;;22.50;36.90;;;;;;4974929;28;20265;-59
2021/09/17 06:30:30;;;;;;;4.97;4.57;;;22.50;36.70;;;;;;4975129;28;20908;-60
2021/09/17 06:32:55;;;;;;;5.47;5.00;;;22.50;36.70;;;;;;4974936;28;20411;-56
2021/09/17 06:35:21;;;;;;;5.63;4.37;;;22.50;36.50;;;;;;4974817;28;20175;-59
2021/09/17 06:37:49;;;;;;;6.60;4.63;;;22.50;37.10;;;;;;4974423;28;20199;-59
2021/09/17 06:40:15;;;;;;;4.77;4.30;;;22.40;36.00;;;;;;4974930;28;20548;-58
2021/09/17 06:42:41;;;;;;;4.70;4.30;;;22.40;35.90;;;;;;4973823;28;20465;-57
2021/09/17 06:45:08;;;;;;;4.90;4.60;;;22.40;35.80;;;;;;4974836;28;20406;-56
2021/09/17 06:47:42;;;;;;;5.23;4.73;;;22.40;35.60;;;;;;4974206;28;20210;-59
2021/09/17 06:50:08;;;;;;;4.77;4.30;;;22.40;35.40;;;;;;4974726;28;20453;-59
2021/09/17 06:52:33;;;;;;;4.80;4.33;;;22.40;35.30;;;;;;4974484;28;20402;-57
2021/09/17 06:54:58;;;;;;;4.40;4.10;;;22.40;35.30;;;;;;4974516;28;20509;-56
2021/09/17 06:57:24;;;;;;;4.27;3.87;;;22.40;35.10;;;;;;4974087;28;20178;-57
2021/09/17 06:59:49;;;;;;;6.20;4.63;;;22.40;35.00;;;;;;4974389;28;20183;-53
2021/09/17 07:02:15;;;;;;;7.33;4.63;;;22.40;35.00;;;;;;4974162;28;20182;-56
2021/09/17 07:04:40;;;;;;;4.90;4.60;;;22.40;35.50;;;;;;4974260;28;20190;-55
2021/09/17 07:07:06;;;;;;;5.63;4.53;;;22.40;35.80;;;;;;4973881;28;20202;-49
2021/09/17 07:09:32;;;;;;;6.00;4.63;;;22.40;35.80;;;;;;4972001;28;20207;-51
2021/09/17 07:11:58;;;;;;;5.47;4.50;;;22.40;36.50;;;;;;4972726;28;20927;-54
2021/09/17 07:14:23;;;;;;;5.80;4.50;;;22.40;35.80;;;;;;4961768;28;20183;-54
2021/09/17 07:16:49;;;;;;;5.23;4.50;;;22.40;35.80;;;;;;4961241;28;20202;-54
2021/09/17 07:19:15;;;;;;;8.97;4.47;;;22.40;36.50;;;;;;4973187;28;20274;-53
2021/09/17 07:21:40;;;;;;;8.90;4.40;;;22.40;36.50;;;;;;4973664;28;20273;-59
2021/09/17 07:24:06;;;;;;;4.47;3.80;;;22.50;36.40;;;;;;4973541;28;20416;-55
2021/09/17 07:26:31;;;;;;;5.40;4.27;;;22.50;36.40;;;;;;4973429;28;20249;-56
2021/09/17 07:28:57;;;;;;;4.23;3.67;;;22.60;36.40;;;;;;4973230;28;20226;-53
2021/09/17 07:31:22;;;;;;;8.23;4.23;;;22.60;36.40;;;;;;4973319;28;20175;-53
2021/09/17 07:33:50;;;;;;;5.10;3.90;;;22.60;36.40;;;;;;4973419;28;20167;-51
2021/09/17 07:36:15;;;;;;;4.57;4.20;;;22.60;36.30;;;;;;4973510;28;20163;-52
2021/09/17 07:38:41;;;;;;;4.83;4.20;;;22.60;36.20;;;;;;4973167;28;20496;-51
2021/09/17 07:41:06;;;;;;;3.87;3.57;;;22.60;36.20;;;;;;4973292;28;20229;-57
2021/09/17 07:43:32;;;;;;;4.00;3.60;;;22.60;36.50;;;;;;4973743;28;20179;-54
2021/09/17 07:45:57;;;;;;;3.50;3.30;;;22.60;36.40;;;;;;4972957;28;20213;-50
2021/09/17 07:48:23;;;;;;;4.07;3.77;;;22.60;36.60;;;;;;4973077;28;20220;-55
2021/09/17 07:50:49;;;;;;;4.53;4.13;;;22.60;36.60;;;;;;4973398;28;20179;-52
2021/09/17 07:53:14;;;;;;;4.23;3.93;;;22.60;36.40;;;;;;4972240;28;20175;-54
2021/09/17 07:55:40;;;;;;;4.10;3.70;;;22.60;36.20;;;;;;4973331;28;20241;-53
2021/09/17 07:58:06;;;;;;;5.23;3.93;;;22.50;36.00;;;;;;4973202;28;20290;-51
2021/09/17 08:00:32;;;;;;;4.30;3.90;;;22.50;36.00;;;;;;4973222;28;20585;-54
2021/09/17 08:02:57;;;;;;;4.93;4.50;;;22.50;36.00;;;;;;4973273;28;20619;-55
2021/09/17 08:05:23;;;;;;;5.33;4.93;;;22.50;36.00;;;;;;4973427;28;20178;-56
2021/09/17 08:07:50;;;;;;;7.73;6.97;;;22.50;36.00;;;;;;4973023;28;20195;-54
2021/09/17 08:10:16;;;;;;;6.70;5.97;;;22.50;36.10;;;;;;4973418;28;20193;-50
2021/09/17 08:12:41;;;;;;;6.30;5.70;;;22.50;36.10;;;;;;4973103;28;20892;-53
2021/09/17 08:15:08;;;;;;;5.30;4.90;;;22.50;36.10;;;;;;4973232;28;20193;-56
2021/09/17 08:17:34;;;;;;;5.57;5.07;;;22.50;36.10;;;;;;4973120;28;20194;-49
2021/09/17 08:19:59;;;;;;;5.80;5.30;;;22.50;36.20;;;;;;4973115;28;20465;-54
2021/09/17 08:22:25;;;;;;;5.80;5.20;;;22.50;36.10;;;;;;4973119;28;20179;-49
2021/09/17 08:24:50;;;;;;;5.90;5.30;;;22.50;36.20;;;;;;4973285;28;20179;-51
2021/09/17 08:27:16;;;;;;;6.10;5.40;;;22.50;36.40;;;;;;4972492;28;20220;-55
2021/09/17 08:29:41;;;;;;;7.07;5.20;;;22.50;36.50;;;;;;4972673;28;20546;-53
2021/09/17 08:32:07;;;;;;;5.97;5.43;;;22.40;37.70;;;;;;4972576;28;20624;-53
2021/09/17 08:34:33;;;;;;;8.13;5.83;;;22.50;39.20;;;;;;4972838;28;20643;-56
2021/09/17 08:36:58;;;;;;;6.43;5.93;;;22.50;40.20;;;;;;4972526;28;20755;-52
2021/09/17 08:39:24;;;;;;;6.00;5.47;;;22.50;40.50;;;;;;4972383;28;20217;-57
2021/09/17 08:41:49;;;;;;;6.73;5.60;;;22.50;40.70;;;;;;4972524;28;20178;-52
2021/09/17 08:44:15;;;;;;;6.87;6.30;;;22.50;40.20;;;;;;4972369;28;20182;-55
2021/09/17 08:46:42;;;;;;;8.10;5.90;;;22.50;39.80;;;;;;4972196;28;20198;-53
2021/09/17 08:49:11;;;;;;;5.63;5.23;;;22.50;39.50;;;;;;4970870;28;20784;-56
2021/09/17 08:51:36;;;;;;;7.43;6.10;;;22.50;39.20;;;;;;4953449;29;20426;-53
2021/09/17 08:54:05;;;;;;;6.90;5.90;;;22.50;38.90;;;;;;4953454;29;20815;-58
2021/09/17 08:56:31;;;;;;;6.37;5.77;;;22.40;38.60;;;;;;4953517;28;20183;-54
2021/09/17 08:58:56;;;;;;;8.30;7.20;;;22.50;38.40;;;;;;4952973;28;20457;-56
2021/09/17 09:01:33;;;;;;;7.40;6.77;;;22.40;38.10;;;;;;4953627;28;20419;-56
2021/09/17 09:04:02;;;;;;;6.73;6.10;;;22.50;37.90;;;;;;4953268;28;20198;-58
2021/09/17 09:06:39;;;;;;;7.80;6.17;;;22.40;37.70;;;;;;4956379;28;20455;-53
2021/09/17 09:09:17;;;;;;;9.77;7.90;;;22.40;37.50;;;;;;4957181;28;20482;-58
2021/09/17 09:11:49;;;;;;;10.03;6.97;;;22.40;37.40;;;;;;4957164;28;20411;-55
2021/09/17 09:14:15;;;;;;;6.40;5.93;;;22.40;37.20;;;;;;4957173;28;20442;-58
2021/09/17 09:16:44;;;;;;;7.30;6.60;;;22.50;37.30;;;;;;4956920;28;20422;-55
2021/09/17 09:19:28;;;;;;;8.43;6.30;;;22.40;37.00;;;;;;4956921;28;20438;-55
2021/09/17 09:22:09;;;;;;;7.30;6.83;;;22.40;37.00;;;;;;4956665;28;20438;-56
2021/09/17 09:24:41;;;;;;;6.97;6.27;;;22.40;36.90;;;;;;4957052;28;20419;-55
2021/09/17 09:27:13;;;;;;;5.60;5.20;;;22.40;36.90;;;;;;4956472;28;20455;-56
2021/09/17 09:29:42;;;;;;;6.40;5.90;;;22.40;36.70;;;;;;4956888;28;20407;-56
2021/09/17 09:32:07;;;;;;;7.97;6.97;;;22.40;36.60;;;;;;4956594;28;20430;-55
2021/09/17 09:34:57;;;;;;;7.33;6.63;;;22.40;36.50;;;;;;4956705;29;20450;-53
2021/09/17 09:37:26;;;;;;;5.77;5.27;;;22.50;36.50;;;;;;4955606;28;20227;-62
2021/09/17 09:39:54;;;;;;;6.33;5.83;;;22.40;36.30;;;;;;4956512;28;20473;-55
2021/09/17 09:42:28;;;;;;;7.30;6.60;;;22.50;36.50;;;;;;4956840;28;20422;-61
2021/09/17 09:45:19;;;;;;;6.00;5.60;;;22.50;36.50;;;;;;4955159;29;20455;-59
2021/09/17 09:47:50;;;;;;;6.70;6.20;;;22.50;36.50;;;;;;4956216;28;20934;-56
2021/09/17 09:50:26;;;;;;;6.57;5.80;;;22.50;36.50;;;;;;4956536;28;20894;-58
2021/09/17 09:52:57;;;;;;;6.20;5.80;;;22.50;36.40;;;;;;4956242;28;20411;-57
2021/09/17 09:55:23;;;;;;;6.87;6.37;;;22.50;36.40;;;;;;4956203;28;20499;-58
2021/09/17 09:57:49;;;;;;;5.90;5.40;;;22.50;36.50;;;;;;4956339;28;20522;-60
2021/09/17 10:00:16;;;;;;;5.77;5.37;;;22.50;36.50;;;;;;4956270;28;20486;-54
2021/09/17 10:02:43;;;;;;;5.70;5.20;;;22.50;36.50;;;;;;4956106;28;20179;-50
2021/09/17 10:05:12;;;;;;;7.57;5.60;;;22.50;36.50;;;;;;4951608;28;20474;-62
2021/09/17 10:07:38;;;;;;;7.50;5.70;;;22.50;36.50;;;;;;4953239;28;20553;-56
2021/09/17 10:10:07;;;;;;;6.10;5.50;;;22.50;36.70;;;;;;4955573;29;20964;-57
2021/09/17 10:12:33;;;;;;;6.03;5.53;;;22.50;36.70;;;;;;4955829;29;20474;-56
2021/09/17 10:14:59;;;;;;;5.70;5.20;;;22.50;36.80;;;;;;4955048;29;20827;-60
2021/09/17 10:17:29;;;;;;;9.20;5.40;;;22.50;36.80;;;;;;4954396;28;20195;-61
2021/09/17 10:19:56;;;;;;;6.33;5.73;;;22.50;36.80;;;;;;4955588;28;20411;-58
2021/09/17 10:22:31;;;;;;;5.30;4.50;;;22.50;36.70;;;;;;4955334;28;20419;-54
2021/09/17 10:25:11;;;;;;;4.13;3.83;;;22.50;36.70;;;;;;4955740;28;20562;-56
2021/09/17 10:27:39;;;;;;;5.60;5.10;;;22.50;37.10;;;;;;4955236;29;20470;-59
2021/09/17 10:30:07;;;;;;;4.30;3.90;;;22.50;36.80;;;;;;4955257;28;20778;-55
2021/09/17 10:32:45;;;;;;;7.17;4.83;;;22.60;37.00;;;;;;4955473;28;20427;-54
2021/09/17 10:35:13;;;;;;;5.93;5.50;;;22.60;37.40;;;;;;4955690;28;20785;-55
2021/09/17 10:37:59;;;;;;;5.47;5.07;;;22.60;37.40;;;;;;4954864;28;20438;-57
2021/09/17 10:40:44;;;;;;;5.10;4.70;;;22.60;37.10;;;;;;4955518;29;20443;-60
2021/09/17 10:43:10;;;;;;;6.07;5.37;;;22.60;38.30;;;;;;4955036;29;20411;-56
2021/09/17 10:45:43;;;;;;;5.50;4.97;;;22.60;37.60;;;;;;4955008;29;20477;-56
2021/09/17 10:48:09;;;;;;;4.93;4.63;;;22.60;37.40;;;;;;4955217;28;20199;-55
2021/09/17 10:50:46;;;;;;;4.93;4.50;;;22.60;37.20;;;;;;4955194;28;20411;-60
2021/09/17 10:53:13;;;;;;;4.77;4.37;;;22.60;37.00;;;;;;4954779;28;20406;-58
2021/09/17 10:55:45;;;;;;;7.43;5.23;;;22.60;37.10;;;;;;4954741;28;20505;-51
2021/09/17 10:58:27;;;;;;;5.40;4.90;;;22.60;37.00;;;;;;4954076;29;20435;-58
2021/09/17 11:00:55;;;;;;;5.53;5.13;;;22.60;37.30;;;;;;4955152;28;20465;-56
2021/09/17 11:03:38;;;;;;;4.90;4.47;;;22.60;36.80;;;;;;4954818;28;20415;-54
2021/09/17 11:06:22;;;;;;;7.70;4.93;;;22.60;37.20;;;;;;4954313;28;20463;-48
2021/09/17 11:08:57;;;;;;;5.17;4.70;;;22.60;36.20;;;;;;4954899;28;20912;-55
2021/09/17 11:11:29;;;;;;;5.10;4.63;;;22.60;36.10;;;;;;4954676;29;20485;-57
2021/09/17 11:13:57;;;;;;;4.33;3.90;;;22.60;36.10;;;;;;4954569;29;20929;-55
2021/09/17 11:16:24;;;;;;;5.20;4.80;;;22.60;36.20;;;;;;4954371;28;20411;-56
2021/09/17 11:18:52;;;;;;;5.33;4.30;;;22.60;36.00;;;;;;4953304;28;20443;-56
2021/09/17 11:21:18;;;;;;;5.13;4.77;;;22.60;36.00;;;;;;4954226;28;21016;-55
2021/09/17 11:23:48;;;;;;;5.20;4.50;;;22.60;36.00;;;;;;4954632;28;20415;-52
2021/09/17 11:26:21;;;;;;;5.33;4.83;;;22.60;36.00;;;;;;4954266;28;20461;-55
2021/09/17 11:29:07;;;;;;;4.20;4.00;;;22.60;36.00;;;;;;4953447;28;20427;-57
2021/09/17 11:31:58;;;;;;;4.83;4.53;;;22.60;36.00;;;;;;4954294;28;20419;-55
2021/09/17 11:34:26;;;;;;;4.77;4.47;;;22.60;36.00;;;;;;4951542;29;20789;-59
2021/09/17 11:37:00;;;;;;;4.83;4.43;;;22.60;36.20;;;;;;4953815;28;20454;-59
2021/09/17 11:39:37;;;;;;;4.67;4.37;;;22.60;35.90;;;;;;4954167;28;20431;-58
2021/09/17 11:42:07;;;;;;;5.20;4.70;;;22.60;35.90;;;;;;4952917;29;20514;-59
2021/09/17 11:44:41;;;;;;;4.40;4.00;;;22.60;36.20;;;;;;4953882;28;20415;-58
2021/09/17 11:47:12;;;;;;;5.30;4.93;;;22.60;36.10;;;;;;4953762;29;20549;-60
2021/09/17 11:49:43;;;;;;;4.37;4.07;;;22.60;36.00;;;;;;4954312;29;20514;-60
2021/09/17 11:52:11;;;;;;;4.97;4.57;;;22.60;36.00;;;;;;4953732;28;20411;-60
2021/09/17 11:54:37;;;;;;;4.13;3.93;;;22.60;35.90;;;;;;4954139;28;20417;-60
2021/09/17 11:57:08;;;;;;;3.50;3.30;;;22.60;35.70;;;;;;4973174;28;20792;-54
2021/09/17 11:59:37;;;;;;;4.13;3.83;;;22.60;35.70;;;;;;4972564;28;20410;-60
2021/09/17 12:02:20;;;;;;;4.93;4.60;;;22.60;35.80;;;;;;4973371;28;20529;-59
2021/09/17 12:04:58;;;;;;;4.33;4.03;;;22.60;35.50;;;;;;4973219;28;20414;-60
2021/09/17 12:07:25;;;;;;;4.57;4.13;;;22.60;35.70;;;;;;4972838;28;20836;-59
2021/09/17 12:09:51;;;;;;;4.53;4.23;;;22.60;35.40;;;;;;4967112;28;20980;-59
2021/09/17 12:12:17;;;;;;;4.70;4.40;;;22.60;35.40;;;;;;4953765;28;20490;-60
2021/09/17 12:14:54;;;;;;;3.70;3.50;;;22.60;35.40;;;;;;4953204;28;20559;-60
2021/09/17 12:17:20;;;;;;;3.53;3.33;;;22.60;35.50;;;;;;4953598;28;20474;-60
2021/09/17 12:20:03;;;;;;;4.37;4.10;;;22.60;35.60;;;;;;4953810;28;20415;-61
2021/09/17 12:22:33;;;;;;;4.47;4.17;;;22.60;35.50;;;;;;4953509;28;20415;-61
2021/09/17 12:25:07;;;;;;;4.07;3.77;;;22.60;35.50;;;;;;4953852;28;20410;-60
2021/09/17 12:27:34;;;;;;;3.77;3.23;;;22.60;35.80;;;;;;4953507;28;20481;-60
2021/09/17 12:30:03;;;;;;;4.70;4.30;;;22.60;36.30;;;;;;4953698;28;20415;-59
2021/09/17 12:32:29;;;;;;;4.73;4.30;;;22.60;35.60;;;;;;4953659;28;20411;-60
2021/09/17 12:35:12;;;;;;;4.47;4.10;;;22.60;35.50;;;;;;4953290;28;20407;-58
2021/09/17 12:37:52;;;;;;;4.53;4.23;;;22.60;36.10;;;;;;4953296;28;20282;-58
2021/09/17 12:40:20;;;;;;;4.30;4.00;;;22.60;36.00;;;;;;4954695;28;20417;-59
2021/09/17 12:43:16;;;;;;;4.37;4.07;;;22.60;35.60;;;;;;4957038;28;20438;-55
2021/09/17 12:45:59;;;;;;;3.90;3.70;;;22.60;36.00;;;;;;4956948;28;20434;-55
2021/09/17 12:48:27;;;;;;;4.30;4.00;;;22.60;35.50;;;;;;4956612;28;20438;-57
2021/09/17 12:50:53;;;;;;;4.07;3.80;;;22.60;35.40;;;;;;4957015;28;20904;-57